createdAt,value
2022-08-07T00:02:35.118Z,43.27
2022-08-07T00:04:15.590Z,43.30
2022-08-07T00:06:52.159Z,43.40
2022-08-07T00:09:21.345Z,43.36
2022-08-07T00:11:55.950Z,43.37
2022-08-07T00:14:31.043Z,43.33
2022-08-07T00:16:59.761Z,43.37
2022-08-07T00:19:59.638Z,43.41
2022-08-07T00:22:24.558Z,43.38
2022-08-07T00:25:04.316Z,43.49
2022-08-07T00:27:51.797Z,43.79
2022-08-07T00:32:40.065Z,43.51
2022-08-07T00:35:08.871Z,43.70
2022-08-07T00:37:48.216Z,43.40
2022-08-07T00:40:16.378Z,43.72
2022-08-07T00:43:04.282Z,43.68
2022-08-07T00:45:37.951Z,43.48
2022-08-07T00:48:10.893Z,43.51
2022-08-07T00:50:50.592Z,43.85
2022-08-07T00:53:20.373Z,43.74
2022-08-07T00:56:00.635Z,43.85
2022-08-07T00:58:31.366Z,43.89
2022-08-07T01:00:59.318Z,43.98
2022-08-07T01:03:57.163Z,43.86
2022-08-07T01:06:16.284Z,43.52
2022-08-07T01:08:52.968Z,43.61
2022-08-07T01:12:09.387Z,43.80
2022-08-07T01:14:09.619Z,44.00
2022-08-07T01:16:37.898Z,44.00
2022-08-07T01:19:14.807Z,43.78
2022-08-07T01:21:47.889Z,43.96
2022-08-07T01:24:18.747Z,43.72
2022-08-07T01:26:51.690Z,44.00
2022-08-07T01:29:19.712Z,43.97
2022-08-07T01:31:48.398Z,44.04
2022-08-07T01:34:18.005Z,43.77
2022-08-07T01:36:52.888Z,43.76
2022-08-07T01:39:26.772Z,43.67
2022-08-07T01:42:07.646Z,43.82
2022-08-07T01:44:42.743Z,43.88
2022-08-07T01:48:18.091Z,43.74
2022-08-07T01:50:03.532Z,43.89
2022-08-07T01:52:32.840Z,43.82
2022-08-07T01:55:00.525Z,43.87
2022-08-07T01:57:30.032Z,43.87
2022-08-07T02:00:03.373Z,43.99
2022-08-07T02:03:18.856Z,43.90
2022-08-07T02:05:47.497Z,44.06
2022-08-07T02:08:18.547Z,43.97
2022-08-07T02:10:48.658Z,43.93
2022-08-07T02:13:23.404Z,43.91
2022-08-07T02:16:11.798Z,43.87
2022-08-07T02:18:45.360Z,43.94
2022-08-07T02:21:16.499Z,43.90
2022-08-07T02:23:45.771Z,43.89
2022-08-07T02:26:32.733Z,43.90
2022-08-07T02:29:02.217Z,43.84
2022-08-07T02:31:29.980Z,44.01
2022-08-07T02:34:03.979Z,43.98
2022-08-07T02:36:33.282Z,44.33
2022-08-07T02:39:16.309Z,44.07
2022-08-07T02:41:54.505Z,44.16
2022-08-07T02:44:23.736Z,44.13
2022-08-07T02:46:55.696Z,44.19
2022-08-07T02:49:55.630Z,43.95
2022-08-07T02:52:15.332Z,43.93
2022-08-07T02:54:50.468Z,44.07
2022-08-07T02:57:20.574Z,44.00
2022-08-07T02:59:55.209Z,44.17
2022-08-07T03:02:29.212Z,44.16
2022-08-07T03:04:57.227Z,44.10
2022-08-07T03:07:43.159Z,43.91
2022-08-07T03:10:14.518Z,44.13
2022-08-07T03:12:42.356Z,44.17
2022-08-07T03:15:12.032Z,44.22
2022-08-07T03:17:53.608Z,44.18
2022-08-07T03:20:22.169Z,44.24
2022-08-07T03:22:50.569Z,44.07
2022-08-07T03:25:21.136Z,44.23
2022-08-07T03:27:59.712Z,44.02
2022-08-07T03:30:37.485Z,44.30
2022-08-07T03:33:08.564Z,44.19
2022-08-07T03:35:44.215Z,43.99
2022-08-07T03:38:21.042Z,44.16
2022-08-07T03:40:57.092Z,44.24
2022-08-07T03:43:26.612Z,44.18
2022-08-07T03:45:54.425Z,44.31
2022-08-07T03:48:22.187Z,44.16
2022-08-07T03:50:56.001Z,44.25
2022-08-07T03:54:01.680Z,43.98
2022-08-07T03:56:17.874Z,44.18
2022-08-07T03:59:08.705Z,44.27
2022-08-07T04:01:43.325Z,44.15
2022-08-07T04:04:17.205Z,44.26
2022-08-07T04:06:45.797Z,44.33
2022-08-07T04:09:15.260Z,44.16
2022-08-07T04:12:28.250Z,44.24
2022-08-07T04:14:38.937Z,44.24
2022-08-07T04:17:19.799Z,44.23
2022-08-07T04:19:52.346Z,44.12
2022-08-07T04:22:23.438Z,44.35
2022-08-07T04:24:58.134Z,44.25
2022-08-07T04:27:27.416Z,44.29
2022-08-07T04:30:02.337Z,44.04
2022-08-07T04:32:34.232Z,44.16
2022-08-07T04:35:03.967Z,44.38
2022-08-07T04:37:52.766Z,44.07
2022-08-07T04:40:21.373Z,44.35
2022-08-07T04:42:55.915Z,44.20
2022-08-07T04:45:57.426Z,44.41
2022-08-07T04:48:25.164Z,44.37
2022-08-07T04:50:57.379Z,44.18
2022-08-07T04:54:00.900Z,44.34
2022-08-07T04:58:23.959Z,44.35
2022-08-07T05:00:09.486Z,44.15
2022-08-07T05:02:03.271Z,43.99
2022-08-07T05:04:35.940Z,44.18
2022-08-07T05:07:19.989Z,44.32
2022-08-07T05:09:52.510Z,44.22
2022-08-07T05:12:26.994Z,44.09
2022-08-07T05:15:04.918Z,44.25
2022-08-07T05:17:51.752Z,44.19
2022-08-07T05:20:24.982Z,44.23
2022-08-07T05:22:55.760Z,43.93
2022-08-07T05:25:25.536Z,44.01
2022-08-07T05:28:19.969Z,44.21
2022-08-07T05:30:52.554Z,44.24
2022-08-07T05:33:20.792Z,44.45
2022-08-07T05:35:49.454Z,44.28
2022-08-07T05:38:58.435Z,44.19
2022-08-07T05:41:12.109Z,44.01
2022-08-07T05:43:49.749Z,43.97
2022-08-07T05:46:31.424Z,44.03
2022-08-07T05:49:00.071Z,44.03
2022-08-07T05:51:31.790Z,43.96
2022-08-07T05:54:12.342Z,43.73
2022-08-07T05:56:51.498Z,43.75
2022-08-07T05:59:19.858Z,43.80
2022-08-07T06:01:49.999Z,43.56
2022-08-07T06:04:18.478Z,43.67
2022-08-07T06:06:47.735Z,43.42
2022-08-07T06:09:45.123Z,43.38
2022-08-07T06:12:12.487Z,43.36
2022-08-07T06:14:43.252Z,43.21
2022-08-07T06:17:19.069Z,43.08
2022-08-07T06:20:03.659Z,43.01
2022-08-07T06:22:38.468Z,43.37
2022-08-07T06:25:10.157Z,43.28
2022-08-07T06:27:43.996Z,43.42
2022-08-07T06:30:35.690Z,43.50
2022-08-07T06:33:09.925Z,43.18
2022-08-07T06:35:47.853Z,43.43
2022-08-07T06:38:31.839Z,43.26
2022-08-07T06:40:59.593Z,43.25
2022-08-07T06:43:27.532Z,43.47
2022-08-07T06:46:11.410Z,43.24
2022-08-07T06:48:42.138Z,43.47
2022-08-07T06:51:15.449Z,43.41
2022-08-07T06:55:28.823Z,43.21
2022-08-07T06:56:49.667Z,43.40
2022-08-07T07:00:14.656Z,43.44
2022-08-07T07:02:09.506Z,43.39
2022-08-07T07:04:43.487Z,43.34
2022-08-07T07:07:59.605Z,43.37
2022-08-07T07:10:10.730Z,43.23
2022-08-07T07:12:41.700Z,43.21
2022-08-07T07:15:23.842Z,42.99
2022-08-07T07:17:56.183Z,43.16
2022-08-07T07:20:31.978Z,42.87
2022-08-07T07:24:08.579Z,42.86
2022-08-07T07:26:33.835Z,43.20
2022-08-07T07:28:48.580Z,42.81
2022-08-07T07:31:39.907Z,42.78
2022-08-07T07:34:19.052Z,42.75
2022-08-07T07:36:53.976Z,43.02
2022-08-07T07:39:22.322Z,42.72
2022-08-07T07:42:08.735Z,42.98
2022-08-07T07:44:39.842Z,42.77
2022-08-07T07:47:15.739Z,42.86
2022-08-07T07:50:35.167Z,42.55
2022-08-07T07:52:40.058Z,42.99
2022-08-07T07:55:09.171Z,42.69
2022-08-07T07:57:51.882Z,42.87
2022-08-07T08:00:29.493Z,42.86
2022-08-07T08:03:05.554Z,42.56
2022-08-07T08:05:50.468Z,42.54
2022-08-07T08:08:34.704Z,42.85
2022-08-07T08:11:04.749Z,42.74
2022-08-07T08:13:33.327Z,42.85
2022-08-07T08:16:25.218Z,42.70
2022-08-07T08:20:16.421Z,42.63
2022-08-07T08:22:16.653Z,42.52
2022-08-07T08:25:09.351Z,42.51
2022-08-07T08:27:56.987Z,42.58
2022-08-07T08:30:30.263Z,42.66
2022-08-07T08:33:00.691Z,42.45
2022-08-07T08:35:39.007Z,42.83
2022-08-07T08:38:10.989Z,42.51
2022-08-07T08:40:43.819Z,42.55
2022-08-07T08:43:17.131Z,42.92
2022-08-07T08:46:00.752Z,42.37
2022-08-07T08:48:32.514Z,42.55
2022-08-07T08:51:14.699Z,42.42
2022-08-07T08:53:55.863Z,42.61
2022-08-07T08:56:27.999Z,42.86
2022-08-07T08:58:59.988Z,42.57
2022-08-07T09:01:40.194Z,42.75
2022-08-07T09:04:15.831Z,42.62
2022-08-07T09:06:49.304Z,42.39
2022-08-07T09:09:30.194Z,42.24
2022-08-07T09:12:30.778Z,42.33
2022-08-07T09:16:25.228Z,42.04
2022-08-07T09:18:23.535Z,42.09
2022-08-07T09:21:01.090Z,42.03
2022-08-07T09:24:32.766Z,42.10
2022-08-07T09:26:26.159Z,41.96
2022-08-07T09:30:04.953Z,41.49
2022-08-07T09:31:56.371Z,41.68
2022-08-07T09:34:27.314Z,41.63
2022-08-07T09:36:59.859Z,41.40
2022-08-07T09:39:53.800Z,41.48
2022-08-07T09:42:33.703Z,41.08
2022-08-07T09:47:24.371Z,40.98
2022-08-07T09:48:14.458Z,40.80
2022-08-07T09:50:52.230Z,40.66
2022-08-07T09:53:22.385Z,40.87
2022-08-07T09:56:19.689Z,41.22
2022-08-07T09:59:44.675Z,41.07
2022-08-07T10:02:29.844Z,40.67
2022-08-07T10:05:12.778Z,40.90
2022-08-07T10:07:53.782Z,41.12
2022-08-07T10:11:00.154Z,41.02
2022-08-07T10:14:00.767Z,41.45
2022-08-07T10:16:39.538Z,41.29
2022-08-07T10:19:23.404Z,40.85
2022-08-07T10:22:15.404Z,40.72
2022-08-07T10:24:50.945Z,40.38
2022-08-07T10:27:30.176Z,40.29
2022-08-07T10:30:14.966Z,40.63
2022-08-07T10:33:08.495Z,40.34
2022-08-07T10:35:55.090Z,39.93
2022-08-07T10:38:48.180Z,40.06
2022-08-07T10:41:47.008Z,40.40
2022-08-07T10:44:13.184Z,40.60
2022-08-07T10:46:44.441Z,40.12
2022-08-07T10:49:17.075Z,40.46
2022-08-07T10:52:13.391Z,40.39
2022-08-07T10:54:55.185Z,40.71
2022-08-07T10:57:36.940Z,40.86
2022-08-07T11:00:08.948Z,40.62
2022-08-07T11:02:41.431Z,40.82
2022-08-07T11:05:35.685Z,40.81
2022-08-07T11:08:18.831Z,40.62
2022-08-07T11:10:57.838Z,40.92
2022-08-07T11:14:45.308Z,40.75
2022-08-07T11:16:22.328Z,40.80
2022-08-07T11:19:01.052Z,41.03
2022-08-07T11:21:32.122Z,40.86
2022-08-07T11:24:05.079Z,41.10
2022-08-07T11:26:48.282Z,40.98
2022-08-07T11:29:41.271Z,41.03
2022-08-07T11:32:11.807Z,40.84
2022-08-07T11:34:43.090Z,40.91
2022-08-07T11:37:14.356Z,41.11
2022-08-07T11:40:01.981Z,41.11
2022-08-07T11:42:38.191Z,41.24
2022-08-07T11:45:14.414Z,41.18
2022-08-07T11:47:56.606Z,41.02
2022-08-07T11:50:44.710Z,41.10
2022-08-07T11:53:33.786Z,41.03
2022-08-07T11:56:26.547Z,40.77
2022-08-07T11:59:01.253Z,40.98
2022-08-07T12:01:59.644Z,41.09
2022-08-07T12:04:44.021Z,41.13
2022-08-07T12:07:27.902Z,41.23
2022-08-07T12:10:05.775Z,40.97
2022-08-07T12:12:37.441Z,41.37
2022-08-07T12:15:08.140Z,41.17
2022-08-07T12:17:58.476Z,41.38
2022-08-07T12:20:30.663Z,41.02
2022-08-07T12:23:15.322Z,41.09
2022-08-07T12:26:02.747Z,41.11
2022-08-07T12:28:49.588Z,41.26
2022-08-07T12:31:24.498Z,40.97
2022-08-07T12:33:56.128Z,40.99
2022-08-07T12:36:33.043Z,41.12
2022-08-07T12:39:03.402Z,41.19
2022-08-07T12:41:52.140Z,40.68
2022-08-07T12:44:21.691Z,40.77
2022-08-07T12:47:06.424Z,40.74
2022-08-07T12:49:48.916Z,40.82
2022-08-07T12:52:23.293Z,40.65
2022-08-07T12:55:03.753Z,40.56
2022-08-07T12:57:39.199Z,40.11
2022-08-07T13:00:32.715Z,40.43
2022-08-07T13:03:23.007Z,40.68
2022-08-07T13:06:27.317Z,40.38
2022-08-07T13:09:00.096Z,39.42
2022-08-07T13:12:02.123Z,39.92
2022-08-07T13:14:31.036Z,39.88
2022-08-07T13:17:05.057Z,40.01
2022-08-07T13:19:50.447Z,39.94
2022-08-07T13:22:28.374Z,40.39
2022-08-07T13:25:00.223Z,40.23
2022-08-07T13:28:05.621Z,40.07
2022-08-07T13:30:19.571Z,40.28
2022-08-07T13:34:31.722Z,40.31
2022-08-07T13:35:59.536Z,40.23
2022-08-07T13:38:31.299Z,40.09
2022-08-07T13:41:03.535Z,40.59
2022-08-07T13:43:34.409Z,40.38
2022-08-07T13:46:12.413Z,40.11
2022-08-07T13:48:59.456Z,40.23
2022-08-07T13:52:05.038Z,40.18
2022-08-07T13:54:16.536Z,40.09
2022-08-07T13:56:51.671Z,40.33
2022-08-07T13:59:21.466Z,40.16
2022-08-07T14:02:04.027Z,40.05
2022-08-07T14:04:38.043Z,39.88
2022-08-07T14:07:17.022Z,39.95
2022-08-07T14:10:14.897Z,39.80
2022-08-07T14:12:42.030Z,39.59
2022-08-07T14:15:22.354Z,39.41
2022-08-07T14:18:23.479Z,39.36
2022-08-07T14:20:48.656Z,39.55
2022-08-07T14:23:31.376Z,39.25
2022-08-07T14:26:08.611Z,39.56
2022-08-07T14:28:58.995Z,39.53
2022-08-07T14:31:25.032Z,39.33
2022-08-07T14:34:10.262Z,39.67
2022-08-07T14:36:39.354Z,39.69
2022-08-07T14:39:07.819Z,39.59
2022-08-07T14:42:20.514Z,39.31
2022-08-07T14:44:28.014Z,39.17
2022-08-07T14:47:14.298Z,39.28
2022-08-07T14:52:35.509Z,39.36
2022-08-07T14:55:03.222Z,39.17
2022-08-07T15:03:16.718Z,38.86
2022-08-07T15:05:54.729Z,38.78
2022-08-07T15:08:34.100Z,38.74
2022-08-07T15:11:03.817Z,38.58
2022-08-07T15:13:36.762Z,38.61
2022-08-07T15:16:10.995Z,38.30
2022-08-07T15:18:41.901Z,38.27
2022-08-07T15:21:43.858Z,38.11
2022-08-07T15:25:16.312Z,38.05
2022-08-07T15:26:58.506Z,37.89
2022-08-07T15:30:06.581Z,37.78
2022-08-07T15:35:14.532Z,37.61
2022-08-07T15:38:04.830Z,37.47
2022-08-07T15:40:34.899Z,37.50
2022-08-07T15:46:31.225Z,37.24
2022-08-07T15:49:03.734Z,37.14
2022-08-07T15:54:26.938Z,37.06
2022-08-07T15:56:57.203Z,37.04
2022-08-07T15:59:39.872Z,36.98
2022-08-07T16:02:15.256Z,37.00
2022-08-07T16:04:44.065Z,36.92
2022-08-07T16:08:30.695Z,37.01
2022-08-07T16:10:07.387Z,37.06
2022-08-07T16:13:01.025Z,36.88
2022-08-07T16:15:54.898Z,36.86
2022-08-07T16:18:49.984Z,36.88
2022-08-07T16:22:02.088Z,36.97
2022-08-07T16:24:33.758Z,36.96
2022-08-07T16:27:17.895Z,36.93
2022-08-07T16:30:17.872Z,36.98
2022-08-07T16:32:55.351Z,36.82
2022-08-07T16:35:52.300Z,36.82
2022-08-07T16:38:57.331Z,36.75
2022-08-07T16:41:41.498Z,37.01
2022-08-07T16:44:47.276Z,36.81
2022-08-07T16:47:56.917Z,36.92
2022-08-07T16:50:38.689Z,37.00
2022-08-07T16:53:55.371Z,36.97
2022-08-07T16:56:15.152Z,37.07
2022-08-07T16:59:10.949Z,36.98
2022-08-07T17:01:50.139Z,37.11
2022-08-07T17:04:31.519Z,37.04
2022-08-07T17:07:08.829Z,36.90
2022-08-07T17:10:08.199Z,37.05
2022-08-07T17:12:34.444Z,37.21
2022-08-07T17:15:05.583Z,37.04
2022-08-07T17:17:46.059Z,37.22
2022-08-07T17:20:20.847Z,37.11
2022-08-07T17:22:56.115Z,36.96
2022-08-07T17:25:47.980Z,37.31
2022-08-07T17:28:19.641Z,37.18
2022-08-07T17:30:58.154Z,37.14
2022-08-07T17:34:08.791Z,37.05
2022-08-07T17:36:20.231Z,37.34
2022-08-07T17:38:54.628Z,37.33
2022-08-07T17:42:04.014Z,37.30
2022-08-07T17:44:42.746Z,37.64
2022-08-07T17:47:38.612Z,37.44
2022-08-07T17:50:16.433Z,37.39
2022-08-07T17:52:49.409Z,37.36
2022-08-07T17:56:00.504Z,37.31
2022-08-07T17:58:08.905Z,37.42
2022-08-07T18:00:48.866Z,37.33
2022-08-07T18:03:19.434Z,37.52
2022-08-07T18:06:02.818Z,37.60
2022-08-07T18:09:01.269Z,37.84
2022-08-07T18:12:07.518Z,37.87
2022-08-07T18:14:25.066Z,38.15
2022-08-07T18:16:57.783Z,38.06
2022-08-07T18:21:06.855Z,38.13
2022-08-07T18:22:26.956Z,38.20
2022-08-07T18:27:39.241Z,38.07
2022-08-07T18:30:32.321Z,38.44
2022-08-07T18:33:35.327Z,38.67
2022-08-07T18:36:08.018Z,38.68
2022-08-07T18:38:54.815Z,38.83
2022-08-07T18:41:44.862Z,38.62
2022-08-07T18:44:26.801Z,38.53
2022-08-07T18:47:00.219Z,39.31
2022-08-07T18:50:30.517Z,39.50
2022-08-07T18:52:38.064Z,39.35
2022-08-07T18:55:42.964Z,39.69
2022-08-07T18:58:38.581Z,39.32
2022-08-07T19:02:31.729Z,39.36
2022-08-07T19:04:09.638Z,39.48
2022-08-07T19:06:51.363Z,40.07
2022-08-07T19:09:56.659Z,39.76
2022-08-07T19:12:15.606Z,39.89
2022-08-07T19:15:02.388Z,39.92
2022-08-07T19:18:02.663Z,39.91
2022-08-07T19:20:34.426Z,39.86
2022-08-07T19:23:18.413Z,40.15
2022-08-07T19:26:22.682Z,40.41
2022-08-07T19:30:56.636Z,40.13
2022-08-07T19:31:40.461Z,40.02
2022-08-07T19:34:15.631Z,40.34
2022-08-07T19:37:10.274Z,40.41
2022-08-07T19:39:56.740Z,40.17
2022-08-07T19:42:30.667Z,40.30
2022-08-07T19:45:08.034Z,40.49
2022-08-07T19:47:37.975Z,40.55
2022-08-07T19:50:41.515Z,40.54
2022-08-07T19:53:00.948Z,40.56
2022-08-07T19:55:56.865Z,40.55
2022-08-07T19:58:18.400Z,40.56
2022-08-07T20:00:57.073Z,40.73
2022-08-07T20:03:34.938Z,40.56
2022-08-07T20:06:06.316Z,40.55
2022-08-07T20:08:48.845Z,40.69
2022-08-07T20:11:34.036Z,40.88
2022-08-07T20:14:07.266Z,40.64
2022-08-07T20:16:45.324Z,40.59
2022-08-07T20:19:13.327Z,40.63
2022-08-07T20:21:47.723Z,40.74
2022-08-07T20:24:19.373Z,40.54
2022-08-07T20:26:50.204Z,40.63
2022-08-07T20:29:48.856Z,40.70
2022-08-07T20:32:22.438Z,40.60
2022-08-07T20:34:52.532Z,40.82
2022-08-07T20:37:26.274Z,40.65
2022-08-07T20:40:03.744Z,40.95
2022-08-07T20:42:32.476Z,40.71
2022-08-07T20:45:01.241Z,40.69
2022-08-07T20:47:56.061Z,41.16
2022-08-07T20:50:20.253Z,40.60
2022-08-07T20:52:51.702Z,41.02
2022-08-07T20:55:23.965Z,40.60
2022-08-07T20:58:02.550Z,40.50
2022-08-07T21:00:32.254Z,40.83
2022-08-07T21:03:01.043Z,40.85
2022-08-07T21:05:51.461Z,40.80
2022-08-07T21:08:29.373Z,40.65
2022-08-07T21:11:07.409Z,40.58
2022-08-07T21:13:43.930Z,40.81
2022-08-07T21:16:26.296Z,40.67
2022-08-07T21:18:56.872Z,40.74
2022-08-07T21:21:27.202Z,40.87
2022-08-07T21:23:59.700Z,41.06
2022-08-07T21:26:30.885Z,40.70
2022-08-07T21:29:00.703Z,40.86
2022-08-07T21:32:41.755Z,41.20
2022-08-07T21:34:26.606Z,41.18
2022-08-07T21:37:01.723Z,40.83
2022-08-07T21:39:45.159Z,40.81
2022-08-07T21:42:41.641Z,40.92
2022-08-07T21:46:03.244Z,40.99
2022-08-07T21:48:03.455Z,41.12
2022-08-07T21:50:34.366Z,41.19
2022-08-07T21:53:07.644Z,41.23
2022-08-07T21:55:43.983Z,40.93
2022-08-07T21:58:30.523Z,40.86
2022-08-07T22:01:01.883Z,41.32
2022-08-07T22:03:32.072Z,41.34
2022-08-07T22:06:01.972Z,40.78
2022-08-07T22:08:35.290Z,40.97
2022-08-07T22:11:04.852Z,40.56
2022-08-07T22:13:50.496Z,41.00
2022-08-07T22:16:38.582Z,40.79
2022-08-07T22:19:16.099Z,40.70
2022-08-07T22:22:04.507Z,41.13
2022-08-07T22:24:34.708Z,41.24
2022-08-07T22:27:05.693Z,41.17
2022-08-07T22:29:49.422Z,41.12
2022-08-07T22:32:21.352Z,41.14
2022-08-07T22:34:53.789Z,40.92
2022-08-07T22:38:04.641Z,40.82
2022-08-07T22:40:19.142Z,41.13
2022-08-07T22:42:49.398Z,41.23
2022-08-07T22:46:42.487Z,41.00
2022-08-07T22:48:31.372Z,41.09
2022-08-07T22:51:09.107Z,41.12
2022-08-07T22:54:06.775Z,41.25
2022-08-07T22:56:33.877Z,41.38
2022-08-07T22:59:32.867Z,41.10
2022-08-07T23:02:05.389Z,41.35
2022-08-07T23:06:09.067Z,41.18
2022-08-07T23:07:57.999Z,41.28
2022-08-07T23:10:41.971Z,41.38
2022-08-07T23:13:28.993Z,41.33
2022-08-07T23:16:44.414Z,41.51
2022-08-07T23:19:13.925Z,41.35
2022-08-07T23:21:45.150Z,41.60
2022-08-07T23:24:21.597Z,41.39
2022-08-07T23:26:57.136Z,41.61
2022-08-07T23:29:43.552Z,41.62
2022-08-07T23:34:20.272Z,41.39
2022-08-07T23:35:22.678Z,41.40
2022-08-07T23:38:19.310Z,41.68
2022-08-07T23:41:09.786Z,41.43
2022-08-07T23:44:00.256Z,41.49
2022-08-07T23:47:05.060Z,41.67
2022-08-07T23:50:07.238Z,41.61
2022-08-07T23:53:06.191Z,41.52
2022-08-07T23:55:52.713Z,41.64
2022-08-07T23:58:24.166Z,41.53
